TVF74SU LFBZ-LFPO
Flight info
| Callsign | TVF74SU |
|---|---|
| Flight time | 1h 1m |
| Altitude | 32000 |
| Route | VAVIX DCT TUDRA/N0453F280 DCT BEVOL UT158 AMB |
| Aircraft | B738/M-SDE2E3FGHIRWXY/LB1 |
Departure
| Time | 2026-04-26 13:47 |
|---|---|
| Airport | Biarritz Pays Basque airport (LFBZ) |
Arrival
| Time | 2026-04-26 14:48 |
|---|---|
| Airport | Paris-Orly Airport (LFPO) |
| Time | Latitude | Longitude | Altitude | Speed | Heading |
|---|---|---|---|---|---|
| 2026-04-26 13:20 | 43.47132 | -1.52947 | 244 ft | 0 kts | 0° |
| 2026-04-26 13:39 | 43.47114 | -1.52948 | 244 ft | 4 kts | 3° |
| 2026-04-26 13:39 | 43.47087 | -1.52951 | 244 ft | 4 kts | 13° |
| 2026-04-26 13:39 | 43.47063 | -1.52964 | 244 ft | 4 kts | 41° |
| 2026-04-26 13:40 | 43.47053 | -1.52984 | 244 ft | 0 kts | 89° |
| 2026-04-26 13:42 | 43.47053 | -1.52974 | 244 ft | 4 kts | 89° |
| 2026-04-26 13:42 | 43.47043 | -1.52906 | 244 ft | 8 kts | 131° |
| 2026-04-26 13:42 | 43.46996 | -1.52838 | 244 ft | 12 kts | 111° |
| 2026-04-26 13:43 | 43.46992 | -1.52704 | 244 ft | 18 kts | 89° |
| 2026-04-26 13:43 | 43.46995 | -1.52492 | 244 ft | 25 kts | 89° |
| 2026-04-26 13:43 | 43.46998 | -1.52275 | 242 ft | 15 kts | 90° |
| 2026-04-26 13:43 | 43.46953 | -1.52179 | 239 ft | 13 kts | 170° |
| 2026-04-26 13:44 | 43.46859 | -1.52166 | 238 ft | 12 kts | 154° |
| 2026-04-26 13:44 | 43.46840 | -1.52061 | 238 ft | 13 kts | 89° |
| 2026-04-26 13:44 | 43.46841 | -1.51902 | 238 ft | 21 kts | 89° |
| 2026-04-26 13:44 | 43.46844 | -1.51662 | 235 ft | 28 kts | 89° |
| 2026-04-26 13:45 | 43.46848 | -1.51374 | 234 ft | 31 kts | 89° |
| 2026-04-26 13:45 | 43.46852 | -1.51094 | 238 ft | 16 kts | 84° |
| 2026-04-26 13:45 | 43.46887 | -1.50988 | 237 ft | 8 kts | 83° |
| 2026-04-26 13:45 | 43.46858 | -1.50963 | 239 ft | 4 kts | 210° |
| 2026-04-26 13:46 | 43.46853 | -1.51006 | 236 ft | 6 kts | 269° |
| 2026-04-26 13:46 | 43.46851 | -1.51242 | 233 ft | 59 kts | 269° |
| 2026-04-26 13:46 | 43.46840 | -1.52156 | 238 ft | 130 kts | 269° |
| 2026-04-26 13:46 | 43.46833 | -1.53651 | 405 ft | 171 kts | 270° |
| 2026-04-26 13:47 | 43.46816 | -1.55271 | 1285 ft | 170 kts | 272° |
| 2026-04-26 13:47 | 43.46822 | -1.56932 | 1956 ft | 183 kts | 270° |
| 2026-04-26 13:47 | 43.46806 | -1.58663 | 2845 ft | 182 kts | 267° |
| 2026-04-26 13:47 | 43.46851 | -1.60413 | 3603 ft | 189 kts | 285° |
| 2026-04-26 13:48 | 43.47652 | -1.61989 | 3833 ft | 220 kts | 329° |
| 2026-04-26 13:48 | 43.49176 | -1.62495 | 4077 ft | 239 kts | 8° |
| 2026-04-26 13:48 | 43.50855 | -1.61870 | 4372 ft | 264 kts | 18° |
| 2026-04-26 13:48 | 43.52661 | -1.61142 | 5106 ft | 272 kts | 14° |
| 2026-04-26 13:49 | 43.54502 | -1.60525 | 6085 ft | 273 kts | 11° |
| 2026-04-26 13:49 | 43.56372 | -1.59959 | 6943 ft | 278 kts | 10° |
| 2026-04-26 13:49 | 43.58237 | -1.59215 | 7765 ft | 283 kts | 27° |
| 2026-04-26 13:49 | 43.59763 | -1.57499 | 8675 ft | 285 kts | 44° |
| 2026-04-26 13:50 | 43.61136 | -1.55484 | 9482 ft | 291 kts | 46° |
| 2026-04-26 13:50 | 43.62509 | -1.53414 | 10338 ft | 293 kts | 47° |
| 2026-04-26 13:50 | 43.63910 | -1.51293 | 10865 ft | 309 kts | 46° |
| 2026-04-26 13:50 | 43.65423 | -1.49015 | 11047 ft | 334 kts | 46° |
| 2026-04-26 13:51 | 43.67056 | -1.46569 | 11232 ft | 358 kts | 46° |
| 2026-04-26 13:51 | 43.68796 | -1.43967 | 11411 ft | 379 kts | 46° |
| 2026-04-26 13:51 | 43.70613 | -1.41253 | 11864 ft | 389 kts | 46° |
| 2026-04-26 13:51 | 43.72459 | -1.38494 | 12547 ft | 392 kts | 46° |
| 2026-04-26 13:52 | 43.74316 | -1.35718 | 13256 ft | 395 kts | 46° |
| 2026-04-26 13:52 | 43.76191 | -1.32915 | 13925 ft | 398 kts | 46° |
| 2026-04-26 13:52 | 43.78079 | -1.30091 | 14512 ft | 402 kts | 46° |
| 2026-04-26 13:52 | 43.79988 | -1.27245 | 15106 ft | 405 kts | 45° |
| 2026-04-26 13:53 | 43.82030 | -1.24544 | 15689 ft | 407 kts | 41° |
| 2026-04-26 13:53 | 43.84183 | -1.21971 | 16279 ft | 410 kts | 39° |
| 2026-04-26 13:53 | 43.86379 | -1.19423 | 16848 ft | 413 kts | 40° |
| 2026-04-26 13:53 | 43.88593 | -1.16854 | 17399 ft | 417 kts | 40° |
| 2026-04-26 13:54 | 43.90813 | -1.14249 | 17963 ft | 420 kts | 40° |
| 2026-04-26 13:54 | 43.93039 | -1.11607 | 18538 ft | 422 kts | 41° |
| 2026-04-26 13:54 | 43.95269 | -1.08938 | 19003 ft | 425 kts | 41° |
| 2026-04-26 13:55 | 43.99762 | -1.03521 | 19978 ft | 430 kts | 41° |
| 2026-04-26 13:55 | 44.01257 | -1.01713 | 20289 ft | 432 kts | 41° |
| 2026-04-26 13:55 | 44.06599 | -0.95239 | 21297 ft | 440 kts | 40° |
| 2026-04-26 13:56 | 44.08911 | -0.92435 | 21766 ft | 442 kts | 41° |
| 2026-04-26 13:56 | 44.11232 | -0.89616 | 22202 ft | 445 kts | 41° |
| 2026-04-26 13:56 | 44.13538 | -0.86812 | 22616 ft | 447 kts | 40° |
| 2026-04-26 13:56 | 44.15919 | -0.83913 | 23025 ft | 450 kts | 41° |
| 2026-04-26 13:57 | 44.18281 | -0.81035 | 23426 ft | 453 kts | 40° |
| 2026-04-26 13:57 | 44.20624 | -0.78176 | 23812 ft | 455 kts | 40° |
| 2026-04-26 13:57 | 44.23012 | -0.75261 | 24159 ft | 457 kts | 40° |
| 2026-04-26 13:57 | 44.25403 | -0.72338 | 24550 ft | 457 kts | 40° |
| 2026-04-26 13:58 | 44.27833 | -0.69465 | 24897 ft | 459 kts | 35° |
| 2026-04-26 13:58 | 44.30673 | -0.67321 | 25206 ft | 460 kts | 23° |
| 2026-04-26 13:58 | 44.33573 | -0.65573 | 25550 ft | 461 kts | 22° |
| 2026-04-26 13:58 | 44.36527 | -0.63805 | 25865 ft | 463 kts | 22° |
| 2026-04-26 13:59 | 44.39492 | -0.62015 | 26182 ft | 465 kts | 23° |
| 2026-04-26 13:59 | 44.42460 | -0.60198 | 26492 ft | 467 kts | 23° |
| 2026-04-26 13:59 | 44.45437 | -0.58353 | 26762 ft | 469 kts | 23° |
| 2026-04-26 14:00 | 44.54388 | -0.52730 | 27908 ft | 467 kts | 24° |
| 2026-04-26 14:00 | 44.57344 | -0.50862 | 28416 ft | 464 kts | 24° |
| 2026-04-26 14:00 | 44.59292 | -0.49630 | 28735 ft | 463 kts | 24° |
| 2026-04-26 14:01 | 44.63214 | -0.47148 | 29259 ft | 463 kts | 23° |
| 2026-04-26 14:01 | 44.66154 | -0.45285 | 29581 ft | 463 kts | 23° |
| 2026-04-26 14:01 | 44.69087 | -0.43426 | 30019 ft | 462 kts | 23° |
| 2026-04-26 14:01 | 44.72008 | -0.41573 | 30467 ft | 459 kts | 23° |
| 2026-04-26 14:02 | 44.74916 | -0.39725 | 30871 ft | 457 kts | 23° |
| 2026-04-26 14:02 | 44.77812 | -0.37884 | 31231 ft | 456 kts | 23° |
| 2026-04-26 14:02 | 44.80696 | -0.36048 | 31561 ft | 455 kts | 23° |
| 2026-04-26 14:02 | 44.83579 | -0.34211 | 31923 ft | 454 kts | 23° |
| 2026-04-26 14:03 | 44.86452 | -0.32378 | 32200 ft | 454 kts | 23° |
| 2026-04-26 14:03 | 44.92240 | -0.28680 | 32175 ft | 457 kts | 23° |
| 2026-04-26 14:04 | 44.97990 | -0.24997 | 32170 ft | 451 kts | 23° |
| 2026-04-26 14:04 | 45.02742 | -0.21947 | 32179 ft | 451 kts | 23° |
| 2026-04-26 14:05 | 45.08459 | -0.18271 | 32185 ft | 451 kts | 23° |
| 2026-04-26 14:05 | 45.14179 | -0.14584 | 32181 ft | 452 kts | 23° |
| 2026-04-26 14:06 | 45.19908 | -0.10884 | 32188 ft | 453 kts | 23° |
| 2026-04-26 14:06 | 45.25651 | -0.07166 | 32186 ft | 454 kts | 23° |
| 2026-04-26 14:07 | 45.31406 | -0.03432 | 32189 ft | 455 kts | 23° |
| 2026-04-26 14:07 | 45.37173 | 0.00318 | 32197 ft | 456 kts | 23° |
| 2026-04-26 14:08 | 45.42939 | 0.04076 | 32187 ft | 456 kts | 23° |
| 2026-04-26 14:08 | 45.48698 | 0.07838 | 32187 ft | 455 kts | 23° |
| 2026-04-26 14:09 | 45.54451 | 0.11605 | 32188 ft | 455 kts | 23° |
| 2026-04-26 14:09 | 45.60197 | 0.15375 | 32188 ft | 454 kts | 22° |
| 2026-04-26 14:10 | 45.65938 | 0.19150 | 32184 ft | 454 kts | 23° |
| 2026-04-26 14:10 | 45.71674 | 0.22931 | 32184 ft | 454 kts | 23° |
| 2026-04-26 14:11 | 45.80277 | 0.28618 | 32182 ft | 454 kts | 22° |
| 2026-04-26 14:11 | 45.86015 | 0.32421 | 32186 ft | 454 kts | 22° |
| 2026-04-26 14:12 | 45.91753 | 0.36234 | 32183 ft | 455 kts | 23° |
| 2026-04-26 14:12 | 45.97454 | 0.40031 | 32199 ft | 455 kts | 22° |
| 2026-04-26 14:13 | 46.06063 | 0.45780 | 32184 ft | 455 kts | 22° |
| 2026-04-26 14:14 | 46.11799 | 0.49622 | 32182 ft | 454 kts | 22° |
| 2026-04-26 14:14 | 46.17525 | 0.53466 | 32187 ft | 454 kts | 22° |
| 2026-04-26 14:15 | 46.23247 | 0.57317 | 32183 ft | 454 kts | 22° |
| 2026-04-26 14:15 | 46.28970 | 0.61177 | 32184 ft | 454 kts | 22° |
| 2026-04-26 14:16 | 46.34695 | 0.65047 | 32190 ft | 454 kts | 22° |
| 2026-04-26 14:16 | 46.40421 | 0.68928 | 32184 ft | 455 kts | 22° |
| 2026-04-26 14:17 | 46.46165 | 0.72829 | 32181 ft | 456 kts | 22° |
| 2026-04-26 14:17 | 46.51917 | 0.76744 | 32186 ft | 457 kts | 22° |
| 2026-04-26 14:18 | 46.57918 | 0.79562 | 32200 ft | 453 kts | 9° |
| 2026-04-26 14:18 | 46.64094 | 0.81404 | 32201 ft | 453 kts | 9° |
| 2026-04-26 14:19 | 46.70271 | 0.83271 | 32185 ft | 453 kts | 9° |
| 2026-04-26 14:19 | 46.76433 | 0.85204 | 32186 ft | 453 kts | 10° |
| 2026-04-26 14:20 | 46.82579 | 0.87158 | 32188 ft | 452 kts | 10° |
| 2026-04-26 14:20 | 46.88725 | 0.89116 | 32124 ft | 453 kts | 10° |
| 2026-04-26 14:20 | 46.91808 | 0.90099 | 31842 ft | 453 kts | 10° |
| 2026-04-26 14:21 | 46.94881 | 0.91079 | 31598 ft | 452 kts | 10° |
| 2026-04-26 14:21 | 46.97962 | 0.92063 | 31355 ft | 454 kts | 10° |
| 2026-04-26 14:21 | 47.01051 | 0.93050 | 31112 ft | 456 kts | 10° |
| 2026-04-26 14:21 | 47.04162 | 0.94040 | 30850 ft | 457 kts | 10° |
| 2026-04-26 14:22 | 47.07276 | 0.95027 | 29995 ft | 458 kts | 11° |
| 2026-04-26 14:22 | 47.10326 | 0.95994 | 29471 ft | 451 kts | 11° |
| 2026-04-26 14:22 | 47.13376 | 0.96962 | 28785 ft | 447 kts | 11° |
| 2026-04-26 14:22 | 47.16411 | 0.97927 | 28114 ft | 444 kts | 11° |
| 2026-04-26 14:23 | 47.19417 | 0.98884 | 27534 ft | 440 kts | 11° |
| 2026-04-26 14:23 | 47.22390 | 0.99832 | 26958 ft | 435 kts | 11° |
| 2026-04-26 14:23 | 47.25335 | 1.00771 | 26404 ft | 431 kts | 11° |
| 2026-04-26 14:23 | 47.28249 | 1.01702 | 25861 ft | 427 kts | 11° |
| 2026-04-26 14:24 | 47.31143 | 1.02628 | 25323 ft | 423 kts | 11° |
| 2026-04-26 14:24 | 47.34009 | 1.03546 | 24792 ft | 420 kts | 11° |
| 2026-04-26 14:24 | 47.36855 | 1.04458 | 24351 ft | 415 kts | 11° |
| 2026-04-26 14:24 | 47.39636 | 1.05351 | 24157 ft | 404 kts | 11° |
| 2026-04-26 14:25 | 47.42347 | 1.06223 | 23983 ft | 393 kts | 11° |
| 2026-04-26 14:25 | 47.44978 | 1.07267 | 23498 ft | 392 kts | 17° |
| 2026-04-26 14:25 | 47.47531 | 1.08653 | 23039 ft | 389 kts | 19° |
| 2026-04-26 14:25 | 47.50057 | 1.10054 | 22570 ft | 386 kts | 19° |
| 2026-04-26 14:26 | 47.52571 | 1.11414 | 22112 ft | 383 kts | 18° |
| 2026-04-26 14:26 | 47.55079 | 1.12707 | 21671 ft | 380 kts | 17° |
| 2026-04-26 14:26 | 47.57572 | 1.13966 | 21238 ft | 377 kts | 17° |
| 2026-04-26 14:26 | 47.60049 | 1.15212 | 20804 ft | 375 kts | 17° |
| 2026-04-26 14:27 | 47.62513 | 1.16453 | 20368 ft | 373 kts | 17° |
| 2026-04-26 14:27 | 47.64960 | 1.17690 | 19944 ft | 371 kts | 17° |
| 2026-04-26 14:27 | 47.67396 | 1.18926 | 19523 ft | 369 kts | 17° |
| 2026-04-26 14:27 | 47.69818 | 1.20159 | 19104 ft | 367 kts | 17° |
| 2026-04-26 14:28 | 47.72231 | 1.21390 | 18676 ft | 366 kts | 17° |
| 2026-04-26 14:28 | 47.74640 | 1.22619 | 18198 ft | 366 kts | 17° |
| 2026-04-26 14:28 | 47.77038 | 1.23845 | 17739 ft | 363 kts | 17° |
| 2026-04-26 14:28 | 47.79423 | 1.25066 | 17303 ft | 361 kts | 17° |
| 2026-04-26 14:29 | 47.81789 | 1.26279 | 16885 ft | 359 kts | 17° |
| 2026-04-26 14:29 | 47.84142 | 1.27485 | 16462 ft | 357 kts | 17° |
| 2026-04-26 14:29 | 47.86481 | 1.28685 | 16041 ft | 354 kts | 18° |
| 2026-04-26 14:29 | 47.88804 | 1.29880 | 15627 ft | 352 kts | 17° |
| 2026-04-26 14:30 | 47.91108 | 1.31065 | 15346 ft | 348 kts | 18° |
| 2026-04-26 14:30 | 47.93388 | 1.32237 | 15100 ft | 345 kts | 18° |
| 2026-04-26 14:30 | 47.95652 | 1.33404 | 14857 ft | 346 kts | 17° |
| 2026-04-26 14:30 | 47.97909 | 1.34569 | 14590 ft | 347 kts | 18° |
| 2026-04-26 14:31 | 48.00181 | 1.35742 | 14217 ft | 344 kts | 18° |
| 2026-04-26 14:31 | 48.02439 | 1.36907 | 13811 ft | 343 kts | 18° |
| 2026-04-26 14:31 | 48.04686 | 1.38068 | 13380 ft | 341 kts | 18° |
| 2026-04-26 14:31 | 48.06854 | 1.39447 | 12999 ft | 338 kts | 30° |
| 2026-04-26 14:32 | 48.08780 | 1.41414 | 12705 ft | 333 kts | 35° |
| 2026-04-26 14:32 | 48.10653 | 1.43406 | 12392 ft | 328 kts | 34° |
| 2026-04-26 14:32 | 48.12518 | 1.45340 | 12085 ft | 324 kts | 33° |
| 2026-04-26 14:32 | 48.14368 | 1.47229 | 11784 ft | 320 kts | 33° |
| 2026-04-26 14:33 | 48.16200 | 1.49085 | 11492 ft | 316 kts | 33° |
| 2026-04-26 14:33 | 48.18006 | 1.50911 | 11243 ft | 310 kts | 33° |
| 2026-04-26 14:33 | 48.19781 | 1.52706 | 10987 ft | 306 kts | 33° |
| 2026-04-26 14:33 | 48.21530 | 1.54478 | 10754 ft | 301 kts | 33° |
| 2026-04-26 14:34 | 48.23252 | 1.56223 | 10501 ft | 297 kts | 34° |
| 2026-04-26 14:34 | 48.24948 | 1.57945 | 10289 ft | 292 kts | 34° |
| 2026-04-26 14:34 | 48.26614 | 1.59639 | 10232 ft | 285 kts | 34° |
| 2026-04-26 14:34 | 48.28224 | 1.61277 | 10194 ft | 273 kts | 34° |
| 2026-04-26 14:35 | 48.29767 | 1.62847 | 10122 ft | 264 kts | 33° |
| 2026-04-26 14:35 | 48.31286 | 1.64395 | 9825 ft | 264 kts | 34° |
| 2026-04-26 14:35 | 48.32806 | 1.65945 | 9503 ft | 264 kts | 34° |
| 2026-04-26 14:35 | 48.34326 | 1.67495 | 9224 ft | 263 kts | 34° |
| 2026-04-26 14:36 | 48.35838 | 1.69038 | 8942 ft | 262 kts | 34° |
| 2026-04-26 14:36 | 48.37346 | 1.70578 | 8651 ft | 262 kts | 34° |
| 2026-04-26 14:36 | 48.38850 | 1.72116 | 8377 ft | 261 kts | 34° |
| 2026-04-26 14:36 | 48.40325 | 1.73637 | 8267 ft | 252 kts | 34° |
| 2026-04-26 14:37 | 48.41743 | 1.75119 | 8031 ft | 247 kts | 35° |
| 2026-04-26 14:37 | 48.43152 | 1.76601 | 7777 ft | 247 kts | 35° |
| 2026-04-26 14:37 | 48.44557 | 1.78078 | 7536 ft | 246 kts | 35° |
| 2026-04-26 14:37 | 48.45956 | 1.79556 | 7306 ft | 245 kts | 35° |
| 2026-04-26 14:38 | 48.47350 | 1.81031 | 7251 ft | 245 kts | 33° |
| 2026-04-26 14:38 | 48.48928 | 1.81979 | 7097 ft | 249 kts | 5° |
| 2026-04-26 14:38 | 48.50666 | 1.81859 | 6937 ft | 251 kts | 353° |
| 2026-04-26 14:38 | 48.51811 | 1.81632 | 6805 ft | 250 kts | 352° |
| 2026-04-26 14:39 | 48.54096 | 1.81139 | 6529 ft | 246 kts | 352° |
| 2026-04-26 14:39 | 48.55781 | 1.80763 | 6333 ft | 243 kts | 352° |
| 2026-04-26 14:39 | 48.57430 | 1.80389 | 6254 ft | 243 kts | 352° |
| 2026-04-26 14:39 | 48.59112 | 1.80004 | 6201 ft | 245 kts | 352° |
| 2026-04-26 14:40 | 48.60820 | 1.79609 | 5994 ft | 250 kts | 352° |
| 2026-04-26 14:40 | 48.62533 | 1.79252 | 5790 ft | 247 kts | 359° |
| 2026-04-26 14:40 | 48.64180 | 1.79796 | 5551 ft | 243 kts | 30° |
| 2026-04-26 14:40 | 48.65368 | 1.81517 | 5343 ft | 237 kts | 62° |
| 2026-04-26 14:41 | 48.65754 | 1.83843 | 5220 ft | 224 kts | 95° |
| 2026-04-26 14:41 | 48.65373 | 1.86062 | 5081 ft | 214 kts | 110° |
| 2026-04-26 14:41 | 48.64837 | 1.88149 | 5033 ft | 214 kts | 111° |
| 2026-04-26 14:41 | 48.64287 | 1.90238 | 5016 ft | 214 kts | 111° |
| 2026-04-26 14:42 | 48.63737 | 1.92311 | 4998 ft | 211 kts | 111° |
| 2026-04-26 14:42 | 48.63183 | 1.94376 | 4908 ft | 213 kts | 111° |
| 2026-04-26 14:42 | 48.62623 | 1.96443 | 4838 ft | 212 kts | 111° |
| 2026-04-26 14:42 | 48.62065 | 1.98482 | 4723 ft | 207 kts | 111° |
| 2026-04-26 14:43 | 48.61544 | 2.00466 | 4605 ft | 201 kts | 103° |
| 2026-04-26 14:43 | 48.61674 | 2.02437 | 4608 ft | 190 kts | 62° |
| 2026-04-26 14:43 | 48.62374 | 2.04181 | 4378 ft | 199 kts | 62° |
| 2026-04-26 14:43 | 48.63028 | 2.06052 | 4124 ft | 201 kts | 63° |
| 2026-04-26 14:44 | 48.63675 | 2.07933 | 3821 ft | 201 kts | 62° |
| 2026-04-26 14:44 | 48.64314 | 2.09773 | 3578 ft | 197 kts | 62° |
| 2026-04-26 14:44 | 48.64943 | 2.11573 | 3332 ft | 191 kts | 62° |
| 2026-04-26 14:44 | 48.65558 | 2.13343 | 3086 ft | 189 kts | 63° |
| 2026-04-26 14:45 | 48.66166 | 2.15106 | 2818 ft | 186 kts | 61° |
| 2026-04-26 14:45 | 48.66573 | 2.16242 | 2651 ft | 187 kts | 60° |
| 2026-04-26 14:45 | 48.67386 | 2.18551 | 2300 ft | 185 kts | 62° |
| 2026-04-26 14:45 | 48.67989 | 2.20254 | 2065 ft | 185 kts | 62° |
| 2026-04-26 14:46 | 48.68576 | 2.21938 | 1825 ft | 174 kts | 60° |
| 2026-04-26 14:46 | 48.69124 | 2.23504 | 1585 ft | 163 kts | 61° |
| 2026-04-26 14:46 | 48.69631 | 2.24938 | 1390 ft | 152 kts | 62° |
| 2026-04-26 14:46 | 48.70110 | 2.26305 | 1165 ft | 145 kts | 62° |
| 2026-04-26 14:47 | 48.70592 | 2.27678 | 995 ft | 150 kts | 62° |
| 2026-04-26 14:47 | 48.71090 | 2.29096 | 763 ft | 155 kts | 61° |
| 2026-04-26 14:47 | 48.71586 | 2.30504 | 586 ft | 150 kts | 62° |
| 2026-04-26 14:47 | 48.72077 | 2.31914 | 374 ft | 152 kts | 61° |
| 2026-04-26 14:48 | 48.72555 | 2.33264 | 292 ft | 132 kts | 61° |
| 2026-04-26 14:48 | 48.72912 | 2.34281 | 292 ft | 78 kts | 62° |
| 2026-04-26 14:48 | 48.73120 | 2.34868 | 288 ft | 52 kts | 61° |
| 2026-04-26 14:48 | 48.73236 | 2.35194 | 290 ft | 26 kts | 61° |
| 2026-04-26 14:49 | 48.73278 | 2.35359 | 289 ft | 12 kts | 93° |
| 2026-04-26 14:49 | 48.73238 | 2.35458 | 290 ft | 11 kts | 146° |
| 2026-04-26 14:49 | 48.73198 | 2.35497 | 289 ft | 0 kts | 153° |
| 2026-04-26 14:50 | 48.73187 | 2.35507 | 289 ft | 6 kts | 149° |
| 2026-04-26 14:50 | 48.73135 | 2.35559 | 290 ft | 11 kts | 145° |
| 2026-04-26 14:50 | 48.73089 | 2.35521 | 288 ft | 8 kts | 241° |
| 2026-04-26 14:50 | 48.73055 | 2.35449 | 291 ft | 9 kts | 231° |
| 2026-04-26 14:51 | 48.73019 | 2.35401 | 290 ft | 13 kts | 213° |
| 2026-04-26 14:51 | 48.72927 | 2.35345 | 289 ft | 2 kts | 194° |
| 2026-04-26 14:51 | 48.72914 | 2.35358 | 289 ft | 3 kts | 135° |
| 2026-04-26 14:51 | 48.72881 | 2.35415 | 290 ft | 10 kts | 146° |
| 2026-04-26 14:52 | 48.72798 | 2.35455 | 290 ft | 14 kts | 165° |
| 2026-04-26 14:52 | 48.72754 | 2.35547 | 289 ft | 12 kts | 76° |
| 2026-04-26 14:52 | 48.72775 | 2.35663 | 289 ft | 11 kts | 74° |
| 2026-04-26 14:52 | 48.72797 | 2.35770 | 290 ft | 8 kts | 60° |
| 2026-04-26 14:53 | 48.72825 | 2.35817 | 290 ft | 1 kts | 46° |
| 2026-04-26 14:53 | 48.72831 | 2.35825 | 291 ft | 1 kts | 46° |
| 2026-04-26 14:53 | 48.72835 | 2.35832 | 291 ft | 0 kts | 46° |